»·PEaware :: SWA363 KSNA-KPHX

SWA363 :: KSNA-KPHX

FLIGHT INFORMATION

Flight Status: Arrived
Operator:
Southwest Airlines
More flights by this operator :: More flights under this callsign
Pilot: Michael F. (10210)
Aircraft: BOEING 737-800
(B738)
More flights by this aircraft type
Origin: KSNA John Wayne-Orange Co
United States
Destination: KPHX Phoenix Sky Harbor Intl
United States
More flights between these airports :: More routes between these airports
Route: +PIGGN2 CNERY BLH HYDRR1
File this flight plan on PilotEdge
Remarks:
Altitude:
(Current/Filed)
37,000ft
Speed:
(Current/Filed)
460kts
Departed: 12-Oct-17 04:53 PM
Arrived: 12-Oct-17 05:46 PM
Distance/Time
Traveled:
294nm/0:52
Distance/Time
To Go:
Arrived

Flight Plot

Page will automatically refresh every two minutes.

Flight plan parsing failed; only flown route is shown


Map Options




Map Legend


Flown Route
Filed Route
Departure Airport
Arrival Airport
Navaid (VOR, NDB)
Fix

Horizontal Profiles

Position Reports

Time Latitude Longitude Heading Altitude Ground
Speed
12-Oct-17 16:26 33.676798 -117.863925 117 64ft 0kts
12-Oct-17 16:27 33.676798 -117.863925 117 64ft 0kts
12-Oct-17 16:28 33.676798 -117.863925 117 64ft 0kts
12-Oct-17 16:29 33.676798 -117.863925 117 64ft 0kts
12-Oct-17 16:30 33.676798 -117.863925 117 64ft 0kts
12-Oct-17 16:31 33.676798 -117.863925 117 64ft 0kts
12-Oct-17 16:32 33.676798 -117.863925 117 64ft 0kts
12-Oct-17 16:33 33.676798 -117.863925 117 64ft 0kts
12-Oct-17 16:34 33.676798 -117.863925 117 64ft 0kts
12-Oct-17 16:35 33.676798 -117.863925 117 64ft 0kts
12-Oct-17 16:36 33.676798 -117.863925 117 64ft 0kts
12-Oct-17 16:37 33.676798 -117.863925 117 64ft 0kts
12-Oct-17 16:38 33.676798 -117.863925 117 64ft 0kts
12-Oct-17 16:39 33.676798 -117.863925 117 64ft 0kts
12-Oct-17 16:40 33.676798 -117.863925 117 64ft 0kts
12-Oct-17 16:41 33.676798 -117.863925 117 64ft 0kts
12-Oct-17 16:42 33.676798 -117.863925 117 64ft 0kts
12-Oct-17 16:43 33.676798 -117.863925 117 64ft 0kts
12-Oct-17 16:44 33.676798 -117.863925 117 64ft 0kts
12-Oct-17 16:45 33.676798 -117.863925 117 64ft 0kts
12-Oct-17 16:46 33.676798 -117.863925 117 64ft 0kts
12-Oct-17 16:47 33.676798 -117.863925 117 64ft 0kts
12-Oct-17 16:48 33.676918 -117.864237 106 64ft 2kts
12-Oct-17 16:49 33.676747 -117.864818 26 64ft 2kts
12-Oct-17 16:50 33.676612 -117.864901 26 64ft 0kts
12-Oct-17 16:51 33.676612 -117.864901 26 64ft 0kts
12-Oct-17 16:52 33.676612 -117.864901 26 64ft 0kts
12-Oct-17 16:53 33.676840 -117.864764 26 64ft 7kts
12-Oct-17 16:54 33.679076 -117.863350 28 64ft 11kts
12-Oct-17 16:55 33.680611 -117.863072 297 64ft 0kts
12-Oct-17 16:56 33.680611 -117.863072 297 64ft 0kts
12-Oct-17 16:57 33.681405 -117.865167 240 64ft 7kts
12-Oct-17 16:58 33.673549 -117.870135 207 64ft 127kts
12-Oct-17 16:59 33.632588 -117.890453 184 2214ft 187kts
12-Oct-17 17:00 33.570336 -117.890504 167 4364ft 264kts
12-Oct-17 17:01 33.504311 -117.847174 124 7928ft 285kts
12-Oct-17 17:02 33.477392 -117.756729 90 9990ft 300kts
12-Oct-17 17:03 33.498175 -117.659464 60 10029ft 331kts
12-Oct-17 17:04 33.547763 -117.558172 59 11718ft 364kts
12-Oct-17 17:05 33.569797 -117.440689 105 14394ft 383kts
12-Oct-17 17:06 33.531925 -117.318501 113 16930ft 401kts
12-Oct-17 17:07 33.503025 -117.185798 95 19229ft 426kts
12-Oct-17 17:08 33.500955 -117.040784 93 21290ft 444kts
12-Oct-17 17:09 33.497866 -116.890570 93 23144ft 459kts
12-Oct-17 17:10 33.496370 -116.734755 92 24766ft 474kts
12-Oct-17 17:11 33.494326 -116.574645 93 26212ft 488kts
12-Oct-17 17:12 33.491985 -116.409958 93 27534ft 502kts
12-Oct-17 17:13 33.489599 -116.240408 94 28720ft 514kts
12-Oct-17 17:14 33.488196 -116.067437 88 29817ft 528kts
12-Oct-17 17:15 33.525826 -115.895579 69 31067ft 536kts
12-Oct-17 17:16 33.575727 -115.727597 71 32528ft 535kts
12-Oct-17 17:17 33.623189 -115.559399 79 33915ft 532kts
12-Oct-17 17:17 33.621679 -115.414001 98 35067ft 520kts
12-Oct-17 17:19 33.608775 -115.213368 95 36579ft 518kts
12-Oct-17 17:20 33.604217 -115.040668 95 36871ft 509kts
12-Oct-17 17:21 33.599577 -114.878958 96 36859ft 477kts
12-Oct-17 17:21 33.592609 -114.743055 104 35848ft 505kts
12-Oct-17 17:23 33.555043 -114.549852 108 34571ft 511kts
12-Oct-17 17:24 33.522481 -114.383283 107 33553ft 513kts
12-Oct-17 17:24 33.495172 -114.244677 108 32721ft 514kts
12-Oct-17 17:26 33.456340 -114.049828 108 31850ft 514kts
12-Oct-17 17:26 33.428891 -113.913289 107 29948ft 503kts
12-Oct-17 17:27 33.396631 -113.752135 107 27452ft 493kts
12-Oct-17 17:28 33.365072 -113.596747 107 24941ft 461kts
12-Oct-17 17:29 33.335716 -113.453011 106 22441ft 431kts
12-Oct-17 17:30 33.312346 -113.316520 105 20154ft 403kts
12-Oct-17 17:31 33.291581 -113.191079 103 19148ft 379kts
12-Oct-17 17:32 33.274942 -113.067586 97 18112ft 375kts
12-Oct-17 17:33 33.277381 -112.944323 90 16786ft 367kts
12-Oct-17 17:34 33.280434 -112.824664 91 15772ft 347kts
12-Oct-17 17:35 33.290571 -112.711021 85 14525ft 342kts
12-Oct-17 17:36 33.301538 -112.599215 86 13347ft 334kts
12-Oct-17 17:37 33.311632 -112.489962 86 12193ft 327kts
12-Oct-17 17:38 33.321331 -112.382622 86 11071ft 320kts
12-Oct-17 17:39 33.330765 -112.277887 86 11177ft 318kts
12-Oct-17 17:40 33.339880 -112.178714 86 10542ft 299kts
12-Oct-17 17:41 33.347985 -112.083578 90 9528ft 276kts
12-Oct-17 17:42 33.346556 -111.994780 93 8325ft 263kts
12-Oct-17 17:43 33.345768 -111.908599 91 7436ft 252kts
12-Oct-17 17:44 33.347949 -111.825446 89 6394ft 248kts
12-Oct-17 17:45 33.393140 -111.784977 351 5084ft 232kts
12-Oct-17 17:46 33.428072 -111.836539 273 3111ft 217kts
12-Oct-17 17:47 33.428774 -111.908575 268 2673ft 211kts
12-Oct-17 17:48 33.428819 -111.969848 270 1616ft 160kts
12-Oct-17 17:49 33.428811 -112.013925 270 1143ft 60kts
12-Oct-17 17:50 33.430019 -112.016342 42 1143ft 10kts
12-Oct-17 17:51 33.431726 -112.015812 1 1143ft 0kts
12-Oct-17 17:52 33.432849 -112.011995 89 1143ft 19kts
12-Oct-17 17:53 33.432849 -112.008276 90 1143ft 3kts
12-Oct-17 17:54 33.432844 -112.003314 90 1143ft 16kts
12-Oct-17 17:55 33.432837 -111.997347 89 1143ft 18kts
12-Oct-17 17:56 33.434036 -111.996027 292 1143ft 0kts
12-Oct-17 17:57 33.434054 -111.996095 289 1143ft 0kts
12-Oct-17 17:58 33.434054 -111.996095 289 1143ft 0kts
12-Oct-17 17:59 33.434054 -111.996095 289 1143ft 0kts
12-Oct-17 18:00 33.434054 -111.996095 289 1143ft 0kts
12-Oct-17 18:01 33.434054 -111.996095 289 1143ft 0kts
12-Oct-17 18:02 33.434054 -111.996095 289 1143ft 0kts
12-Oct-17 18:03 33.434054 -111.996095 289 1143ft 0kts
12-Oct-17 18:04 33.434054 -111.996095 289 1143ft 0kts

Navigation Log

Ident Type
Flight plan parsing failed, navigation log unavailable